createdAt,value
2019-04-27T00:00:16.520Z,8.70
2019-04-27T00:01:15.507Z,11.50
2019-04-27T00:02:18.203Z,8.90
2019-04-27T00:03:16.484Z,9.90
2019-04-27T00:04:19.018Z,9.50
2019-04-27T00:05:15.467Z,10.60
2019-04-27T00:06:15.453Z,9.70
2019-04-27T00:07:16.967Z,9.60
2019-04-27T00:08:15.435Z,10.80
2019-04-27T00:09:15.420Z,10.40
2019-04-27T00:10:15.413Z,8.50
2019-04-27T00:11:15.399Z,9.60
2019-04-27T00:12:16.468Z,9.70
2019-04-27T00:13:16.377Z,9.40
2019-04-27T00:14:18.138Z,10.10
2019-04-27T00:15:15.357Z,10.00
2019-04-27T00:16:15.347Z,9.20
2019-04-27T00:17:15.341Z,8.60
2019-04-27T00:18:16.926Z,9.90
2019-04-27T00:19:15.314Z,12.20
2019-04-27T00:20:15.308Z,12.20
2019-04-27T00:21:15.318Z,8.10
2019-04-27T00:22:15.281Z,8.80
2019-04-27T00:23:15.272Z,10.60
2019-04-27T00:24:15.261Z,9.50
2019-04-27T00:25:15.248Z,11.70
2019-04-27T00:26:15.238Z,8.90
2019-04-27T00:27:15.227Z,11.60
2019-04-27T00:28:15.217Z,10.40
2019-04-27T00:29:15.208Z,14.60
2019-04-27T00:30:15.195Z,12.80
2019-04-27T00:31:15.186Z,11.50
2019-04-27T00:32:15.175Z,10.80
2019-04-27T00:33:15.162Z,10.00
2019-04-27T00:34:15.187Z,12.00
2019-04-27T00:35:15.142Z,12.10
2019-04-27T00:36:15.130Z,13.30
2019-04-27T00:37:15.120Z,12.60
2019-04-27T00:38:15.121Z,11.00
2019-04-27T00:39:15.098Z,11.50
2019-04-27T00:40:15.089Z,11.20
2019-04-27T00:41:15.077Z,11.10
2019-04-27T00:42:15.067Z,11.30
2019-04-27T00:43:15.058Z,12.30
2019-04-27T00:44:15.045Z,11.30
2019-04-27T00:45:15.040Z,11.50
2019-04-27T00:46:15.026Z,12.40
2019-04-27T00:47:15.014Z,11.00
2019-04-27T00:48:15.002Z,12.00
2019-04-27T00:49:14.991Z,14.10
2019-04-27T00:50:14.984Z,10.40
2019-04-27T00:51:14.970Z,12.90
2019-04-27T00:52:14.960Z,12.00
2019-04-27T00:53:14.955Z,11.80
2019-04-27T00:54:14.939Z,12.90
2019-04-27T00:55:14.929Z,12.90
2019-04-27T00:56:14.919Z,10.90
2019-04-27T00:57:14.908Z,10.70
2019-04-27T00:58:14.899Z,10.90
2019-04-27T00:59:14.884Z,10.10
2019-04-27T01:00:14.874Z,11.60
2019-04-27T01:01:15.048Z,12.90
2019-04-27T01:02:14.855Z,10.10
2019-04-27T01:03:14.843Z,11.90
2019-04-27T01:04:14.831Z,11.80
2019-04-27T01:05:14.821Z,10.10
2019-04-27T01:06:14.987Z,12.50
2019-04-27T01:07:14.804Z,9.80
2019-04-27T01:08:14.788Z,9.30
2019-04-27T01:09:14.778Z,10.60
2019-04-27T01:10:14.766Z,11.50
2019-04-27T01:11:14.758Z,10.90
2019-04-27T01:12:14.747Z,11.60
2019-04-27T01:13:14.734Z,11.10
2019-04-27T01:14:14.722Z,9.90
2019-04-27T01:15:14.713Z,11.10
2019-04-27T01:16:17.451Z,11.80
2019-04-27T01:17:15.705Z,11.10
2019-04-27T01:18:15.508Z,13.50
2019-04-27T01:19:14.671Z,11.40
2019-04-27T01:20:14.660Z,10.90
2019-04-27T01:21:14.649Z,11.90
2019-04-27T01:22:14.642Z,9.50
2019-04-27T01:23:14.629Z,12.20
2019-04-27T01:24:14.618Z,12.70
2019-04-27T01:25:14.608Z,12.50
2019-04-27T01:26:14.596Z,11.50
2019-04-27T01:27:14.587Z,13.50
2019-04-27T01:28:14.577Z,12.70
2019-04-27T01:29:14.562Z,13.10
2019-04-27T01:30:14.554Z,12.50
2019-04-27T01:31:14.541Z,13.90
2019-04-27T01:32:14.531Z,12.30
2019-04-27T01:33:14.530Z,13.30
2019-04-27T01:34:14.509Z,12.90
2019-04-27T01:35:14.501Z,13.70
2019-04-27T01:36:14.487Z,13.10
2019-04-27T01:37:14.478Z,13.70
2019-04-27T01:38:14.468Z,13.60
2019-04-27T01:39:14.457Z,13.40
2019-04-27T01:40:14.445Z,16.00
2019-04-27T01:41:14.434Z,14.90
2019-04-27T01:42:14.424Z,13.90
2019-04-27T01:43:14.415Z,16.50
2019-04-27T01:44:14.403Z,14.80
2019-04-27T01:45:14.392Z,15.10
2019-04-27T01:46:14.381Z,15.30
2019-04-27T01:47:14.371Z,15.30
2019-04-27T01:48:23.036Z,16.00
2019-04-27T01:49:15.348Z,14.30
2019-04-27T01:50:14.337Z,14.80
2019-04-27T01:51:14.327Z,17.00
2019-04-27T01:52:14.321Z,15.70
2019-04-27T01:53:14.306Z,14.10
2019-04-27T01:54:14.297Z,15.70
2019-04-27T01:55:14.285Z,14.70
2019-04-27T01:56:14.273Z,16.50
2019-04-27T01:57:14.265Z,14.20
2019-04-27T01:58:14.252Z,15.50
2019-04-27T01:59:14.241Z,14.30
2019-04-27T02:00:14.230Z,17.90
2019-04-27T02:01:14.221Z,14.90
2019-04-27T02:02:14.210Z,16.70
2019-04-27T02:03:14.202Z,16.60
2019-04-27T02:04:14.190Z,17.60
2019-04-27T02:05:14.181Z,15.00
2019-04-27T02:06:14.168Z,14.70
2019-04-27T02:07:14.157Z,15.50
2019-04-27T02:08:14.145Z,16.40
2019-04-27T02:09:14.133Z,14.40
2019-04-27T02:10:14.125Z,15.10
2019-04-27T02:11:14.143Z,15.50
2019-04-27T02:12:14.102Z,18.10
2019-04-27T02:13:14.091Z,16.00
2019-04-27T02:14:14.083Z,14.40
2019-04-27T02:15:14.069Z,14.80
2019-04-27T02:16:14.059Z,16.80
2019-04-27T02:17:14.049Z,15.00
2019-04-27T02:18:14.035Z,14.80
2019-04-27T02:19:14.028Z,14.10
2019-04-27T02:20:14.015Z,16.30
2019-04-27T02:21:14.007Z,16.40
2019-04-27T02:22:13.992Z,14.50
2019-04-27T02:23:13.981Z,15.60
2019-04-27T02:24:13.971Z,14.90
2019-04-27T02:25:13.962Z,15.30
2019-04-27T02:26:13.951Z,15.60
2019-04-27T02:27:13.941Z,13.50
2019-04-27T02:28:13.931Z,13.70
2019-04-27T02:29:13.919Z,15.80
2019-04-27T02:30:13.908Z,12.00
2019-04-27T02:31:13.899Z,13.80
2019-04-27T02:32:13.896Z,13.70
2019-04-27T02:33:13.877Z,15.40
2019-04-27T02:34:13.871Z,15.00
2019-04-27T02:35:13.856Z,12.30
2019-04-27T02:36:15.164Z,12.30
2019-04-27T02:37:13.836Z,13.40
2019-04-27T02:38:13.822Z,13.30
2019-04-27T02:39:13.814Z,12.30
2019-04-27T02:40:13.800Z,14.50
2019-04-27T02:41:13.789Z,11.70
2019-04-27T02:42:13.779Z,13.00
2019-04-27T02:43:13.769Z,11.50
2019-04-27T02:44:13.758Z,12.70
2019-04-27T02:45:13.747Z,11.50
2019-04-27T02:46:13.742Z,12.10
2019-04-27T02:47:13.727Z,11.90
2019-04-27T02:48:13.715Z,11.40
2019-04-27T02:49:13.708Z,9.70
2019-04-27T02:50:13.697Z,10.00
2019-04-27T02:51:13.683Z,11.10
2019-04-27T02:52:13.672Z,10.70
2019-04-27T02:53:13.660Z,9.40
2019-04-27T02:54:13.651Z,11.10
2019-04-27T02:55:13.697Z,9.70
2019-04-27T02:56:13.633Z,10.70
2019-04-27T02:57:13.620Z,10.10
2019-04-27T02:58:13.606Z,10.50
2019-04-27T02:59:13.594Z,9.30
2019-04-27T03:00:13.586Z,10.80
2019-04-27T03:01:13.573Z,10.20
2019-04-27T03:02:13.567Z,10.40
2019-04-27T03:03:13.558Z,9.40
2019-04-27T03:04:13.546Z,11.50
2019-04-27T03:05:13.532Z,9.80
2019-04-27T03:06:13.521Z,9.00
2019-04-27T03:07:13.510Z,12.40
2019-04-27T03:08:13.497Z,10.30
2019-04-27T03:09:13.487Z,9.20
2019-04-27T03:10:13.478Z,9.00
2019-04-27T03:11:13.467Z,10.50
2019-04-27T03:12:13.456Z,10.80
2019-04-27T03:13:13.453Z,8.60
2019-04-27T03:14:28.319Z,9.90
2019-04-27T03:15:14.425Z,8.50
2019-04-27T03:16:13.534Z,8.60
2019-04-27T03:17:13.407Z,11.90
2019-04-27T03:18:13.389Z,9.00
2019-04-27T03:19:18.077Z,9.70
2019-04-27T03:20:14.370Z,10.80
2019-04-27T03:21:13.449Z,11.00
2019-04-27T03:22:13.350Z,8.00
2019-04-27T03:23:13.343Z,6.70
2019-04-27T03:24:13.327Z,7.60
2019-04-27T03:25:15.334Z,8.60
2019-04-27T03:26:13.321Z,9.30
2019-04-27T03:27:13.294Z,9.00
2019-04-27T03:28:13.286Z,7.80
2019-04-27T03:29:13.273Z,8.00
2019-04-27T03:30:13.264Z,8.90
2019-04-27T03:31:14.091Z,9.30
2019-04-27T03:32:13.403Z,6.90
2019-04-27T03:33:13.231Z,7.30
2019-04-27T03:34:16.422Z,6.20
2019-04-27T03:35:13.679Z,6.40
2019-04-27T03:36:13.447Z,6.70
2019-04-27T03:37:13.192Z,5.80
2019-04-27T03:38:13.176Z,6.80
2019-04-27T03:39:13.163Z,7.30
2019-04-27T03:40:13.153Z,7.30
2019-04-27T03:41:13.150Z,6.70
2019-04-27T03:42:13.132Z,6.50
2019-04-27T03:43:13.122Z,6.00
2019-04-27T03:44:13.110Z,8.10
2019-04-27T03:45:13.098Z,7.00
2019-04-27T03:46:13.103Z,6.80
2019-04-27T03:47:13.080Z,8.00
2019-04-27T03:48:13.072Z,7.10
2019-04-27T03:49:27.762Z,7.80
2019-04-27T03:50:14.053Z,6.20
2019-04-27T03:51:13.036Z,7.10
2019-04-27T03:52:13.023Z,6.50
2019-04-27T03:53:13.016Z,6.60
2019-04-27T03:54:13.002Z,6.60
2019-04-27T03:55:12.995Z,7.20
2019-04-27T03:56:12.984Z,6.60
2019-04-27T03:57:12.970Z,8.00
2019-04-27T03:58:12.962Z,7.00
2019-04-27T03:59:12.966Z,7.10
2019-04-27T04:00:12.957Z,8.60
2019-04-27T04:01:12.933Z,8.00
2019-04-27T04:02:12.916Z,7.60
2019-04-27T04:03:12.905Z,8.70
2019-04-27T04:04:12.898Z,8.30
2019-04-27T04:05:12.886Z,7.90
2019-04-27T04:06:12.876Z,8.90
2019-04-27T04:07:12.865Z,8.50
2019-04-27T04:08:12.856Z,8.50
2019-04-27T04:09:12.852Z,9.30
2019-04-27T04:10:12.832Z,9.70
2019-04-27T04:11:12.822Z,10.60
2019-04-27T04:12:12.819Z,9.40
2019-04-27T04:13:12.797Z,8.20
2019-04-27T04:14:12.791Z,9.90
2019-04-27T04:15:12.788Z,8.20
2019-04-27T04:16:12.769Z,9.70
2019-04-27T04:17:12.943Z,9.50
2019-04-27T04:18:12.749Z,9.20
2019-04-27T04:19:12.737Z,9.40
2019-04-27T04:20:12.722Z,11.00
2019-04-27T04:21:12.713Z,11.20
2019-04-27T04:22:12.703Z,10.30
2019-04-27T04:23:12.692Z,9.80
2019-04-27T04:24:12.682Z,8.90
2019-04-27T04:25:12.670Z,9.60
2019-04-27T04:26:12.659Z,9.90
2019-04-27T04:27:12.652Z,7.90
2019-04-27T04:28:12.636Z,11.70
2019-04-27T04:29:12.627Z,8.70
2019-04-27T04:30:12.755Z,9.30
2019-04-27T04:31:13.795Z,8.30
2019-04-27T04:32:12.593Z,8.60
2019-04-27T04:33:12.583Z,12.00
2019-04-27T04:34:12.574Z,8.20
2019-04-27T04:35:12.564Z,9.50
2019-04-27T04:36:12.556Z,9.30
2019-04-27T04:37:12.540Z,9.60
2019-04-27T04:38:12.544Z,8.40
2019-04-27T04:39:12.877Z,9.10
2019-04-27T04:40:12.507Z,9.50
2019-04-27T04:41:12.500Z,10.80
2019-04-27T04:42:12.486Z,11.50
2019-04-27T04:43:12.478Z,8.70
2019-04-27T04:44:12.676Z,9.20
2019-04-27T04:45:12.455Z,10.60
2019-04-27T04:46:13.314Z,8.90
2019-04-27T04:47:12.434Z,9.30
2019-04-27T04:48:12.423Z,11.50
2019-04-27T04:49:12.412Z,10.50
2019-04-27T04:50:15.185Z,11.90
2019-04-27T04:51:12.392Z,10.40
2019-04-27T04:52:12.392Z,11.00
2019-04-27T04:53:13.021Z,11.30
2019-04-27T04:54:12.369Z,10.90
2019-04-27T04:55:12.348Z,10.30
2019-04-27T04:56:12.337Z,12.30
2019-04-27T04:57:12.331Z,11.20
2019-04-27T04:58:12.315Z,10.20
2019-04-27T04:59:12.303Z,12.30
2019-04-27T05:00:12.300Z,13.30
2019-04-27T05:01:12.285Z,11.20
2019-04-27T05:02:12.272Z,14.20
2019-04-27T05:03:12.260Z,12.50
2019-04-27T05:04:12.251Z,12.70
2019-04-27T05:05:12.239Z,12.50
2019-04-27T05:06:12.228Z,11.80
2019-04-27T05:07:12.216Z,10.30
2019-04-27T05:08:12.207Z,12.50
2019-04-27T05:09:12.196Z,12.30
2019-04-27T05:10:12.183Z,12.10
2019-04-27T05:11:12.182Z,11.80
2019-04-27T05:12:12.163Z,12.70
2019-04-27T05:13:12.154Z,11.90
2019-04-27T05:14:12.142Z,10.90
2019-04-27T05:15:12.128Z,12.40
2019-04-27T05:16:12.119Z,13.40
2019-04-27T05:17:12.110Z,13.70
2019-04-27T05:18:12.099Z,12.20
2019-04-27T05:19:12.089Z,12.10
2019-04-27T05:20:22.310Z,11.30
2019-04-27T05:21:13.070Z,12.40
2019-04-27T05:22:12.058Z,11.60
2019-04-27T05:23:12.044Z,12.80
2019-04-27T05:24:12.037Z,12.20
2019-04-27T05:25:12.024Z,14.10
2019-04-27T05:26:12.010Z,14.10
2019-04-27T05:27:12.005Z,12.90
2019-04-27T05:28:11.992Z,13.00
2019-04-27T05:29:11.979Z,14.00
2019-04-27T05:30:11.970Z,15.00
2019-04-27T05:31:11.961Z,13.70
2019-04-27T05:32:11.948Z,14.30
2019-04-27T05:33:11.937Z,12.50
2019-04-27T05:34:11.930Z,11.90
2019-04-27T05:35:11.914Z,15.10
2019-04-27T05:36:11.905Z,14.70
2019-04-27T05:37:11.893Z,13.30
2019-04-27T05:38:13.483Z,13.60
2019-04-27T05:39:13.327Z,15.00
2019-04-27T05:40:11.861Z,15.70
2019-04-27T05:41:11.850Z,15.20
2019-04-27T05:42:16.931Z,15.40
2019-04-27T05:43:12.828Z,15.60
2019-04-27T05:44:13.041Z,15.80
2019-04-27T05:45:15.392Z,15.10
2019-04-27T05:46:12.799Z,15.00
2019-04-27T05:47:13.124Z,13.90
2019-04-27T05:48:11.776Z,14.60
2019-04-27T05:49:11.765Z,15.20
2019-04-27T05:50:13.340Z,16.40
2019-04-27T05:51:12.740Z,15.70
2019-04-27T05:52:14.621Z,17.00
2019-04-27T05:53:11.723Z,15.20
2019-04-27T05:54:11.711Z,13.50
2019-04-27T05:55:11.698Z,14.40
2019-04-27T05:56:11.689Z,17.30
2019-04-27T05:57:11.679Z,15.10
2019-04-27T05:58:11.667Z,14.80
2019-04-27T05:59:14.602Z,15.00
2019-04-27T06:00:11.648Z,15.10
2019-04-27T06:01:11.636Z,15.20
2019-04-27T06:02:11.631Z,15.70
2019-04-27T06:03:11.616Z,13.40
2019-04-27T06:04:11.603Z,15.30
2019-04-27T06:05:11.591Z,13.10
2019-04-27T06:06:11.582Z,12.20
2019-04-27T06:07:11.569Z,12.50
2019-04-27T06:08:11.561Z,15.00
2019-04-27T06:09:11.547Z,13.00
2019-04-27T06:10:11.537Z,13.00
2019-04-27T06:11:11.528Z,16.60
2019-04-27T06:12:11.521Z,13.30
2019-04-27T06:13:11.508Z,15.30
2019-04-27T06:14:11.500Z,14.70
2019-04-27T06:15:11.490Z,13.40
2019-04-27T06:16:11.473Z,13.30
2019-04-27T06:17:11.465Z,13.60
2019-04-27T06:18:11.451Z,15.00
2019-04-27T06:19:11.439Z,14.60
2019-04-27T06:20:11.427Z,14.20
2019-04-27T06:21:11.418Z,12.80
2019-04-27T06:22:11.407Z,14.10
2019-04-27T06:23:11.395Z,15.20
2019-04-27T06:24:11.385Z,13.60
2019-04-27T06:25:12.048Z,13.40
2019-04-27T06:26:11.792Z,15.20
2019-04-27T06:27:11.352Z,15.20
2019-04-27T06:28:11.342Z,12.40
2019-04-27T06:29:11.330Z,11.50
2019-04-27T06:30:11.321Z,13.50
2019-04-27T06:31:11.314Z,14.20
2019-04-27T06:32:11.303Z,12.70
2019-04-27T06:33:11.287Z,11.90
2019-04-27T06:34:11.280Z,11.90
2019-04-27T06:35:12.451Z,12.60
2019-04-27T06:36:11.256Z,12.80
2019-04-27T06:37:11.244Z,12.80
2019-04-27T06:38:11.600Z,11.30
2019-04-27T06:39:11.222Z,11.50
2019-04-27T06:40:11.217Z,12.70
2019-04-27T06:41:11.229Z,11.80
2019-04-27T06:42:18.150Z,13.80
2019-04-27T06:43:12.184Z,13.30
2019-04-27T06:44:11.556Z,13.90
2019-04-27T06:45:11.160Z,13.20
2019-04-27T06:46:11.150Z,12.90
2019-04-27T06:47:11.135Z,12.80
2019-04-27T06:48:11.129Z,13.10
2019-04-27T06:49:11.378Z,14.30
2019-04-27T06:50:11.104Z,14.10
2019-04-27T06:51:11.095Z,13.70
2019-04-27T06:52:11.082Z,14.60
2019-04-27T06:53:11.075Z,13.20
2019-04-27T06:54:11.061Z,12.80
2019-04-27T06:55:11.053Z,15.30
2019-04-27T06:56:11.046Z,14.20
2019-04-27T06:57:11.030Z,13.10
2019-04-27T06:58:11.028Z,15.80
2019-04-27T06:59:11.008Z,16.10
2019-04-27T07:00:10.995Z,15.20
2019-04-27T07:01:11.203Z,15.40
2019-04-27T07:02:10.977Z,14.30
2019-04-27T07:03:10.966Z,15.30
2019-04-27T07:04:11.092Z,15.30
2019-04-27T07:05:10.944Z,16.10
2019-04-27T07:06:10.938Z,15.80
2019-04-27T07:07:10.923Z,17.20
2019-04-27T07:08:10.911Z,15.50
2019-04-27T07:09:10.905Z,19.30
2019-04-27T07:10:10.898Z,20.30
2019-04-27T07:11:11.534Z,16.50
2019-04-27T07:12:10.869Z,18.10
2019-04-27T07:13:10.857Z,17.50
2019-04-27T07:14:11.592Z,19.90
2019-04-27T07:15:10.840Z,18.80
2019-04-27T07:16:10.825Z,19.30
2019-04-27T07:17:10.819Z,17.30
2019-04-27T07:18:10.803Z,19.60
2019-04-27T07:19:10.800Z,18.70
2019-04-27T07:20:10.787Z,17.70
2019-04-27T07:21:18.855Z,17.30
2019-04-27T07:22:11.854Z,15.90
2019-04-27T07:23:10.749Z,18.20
2019-04-27T07:24:10.739Z,17.60
2019-04-27T07:25:10.728Z,20.10
2019-04-27T07:26:10.717Z,17.80
2019-04-27T07:27:10.705Z,17.60
2019-04-27T07:28:10.696Z,15.80
2019-04-27T07:29:10.686Z,16.70
2019-04-27T07:30:11.934Z,17.00
2019-04-27T07:31:10.674Z,15.70
2019-04-27T07:32:10.673Z,17.30
2019-04-27T07:33:10.643Z,16.90
2019-04-27T07:34:10.634Z,18.40
2019-04-27T07:35:10.619Z,15.00
2019-04-27T07:36:10.609Z,16.50
2019-04-27T07:37:11.188Z,16.70
2019-04-27T07:38:10.588Z,16.90
2019-04-27T07:39:11.588Z,15.50
2019-04-27T07:40:10.567Z,17.60
2019-04-27T07:41:10.556Z,15.90
2019-04-27T07:42:10.546Z,15.10
2019-04-27T07:43:10.534Z,17.40
2019-04-27T07:44:10.525Z,15.90
2019-04-27T07:45:11.317Z,19.10
2019-04-27T07:46:10.503Z,17.60
2019-04-27T07:47:10.494Z,18.20
2019-04-27T07:48:10.479Z,18.10
2019-04-27T07:49:10.471Z,16.80
2019-04-27T07:50:10.460Z,16.80
2019-04-27T07:51:10.448Z,15.80
2019-04-27T07:52:10.436Z,16.10
2019-04-27T07:53:10.427Z,16.20
2019-04-27T07:54:10.419Z,15.40
2019-04-27T07:55:10.407Z,16.50
2019-04-27T07:56:10.816Z,17.60
2019-04-27T07:57:10.383Z,19.00
2019-04-27T07:58:10.373Z,17.30
2019-04-27T07:59:10.363Z,18.10
2019-04-27T08:00:10.352Z,16.20
2019-04-27T08:01:10.344Z,15.40
2019-04-27T08:02:11.035Z,19.00
2019-04-27T08:03:10.322Z,16.80
2019-04-27T08:04:10.311Z,16.50
2019-04-27T08:05:10.299Z,15.10
2019-04-27T08:06:10.867Z,15.50
2019-04-27T08:07:10.282Z,16.70
2019-04-27T08:08:10.266Z,16.20
2019-04-27T08:09:10.257Z,18.10
2019-04-27T08:10:10.246Z,15.70
2019-04-27T08:11:11.330Z,15.90
2019-04-27T08:12:10.885Z,16.00
2019-04-27T08:13:10.219Z,17.90
2019-04-27T08:14:10.204Z,16.50
2019-04-27T08:15:10.191Z,14.20
2019-04-27T08:16:10.181Z,15.50
2019-04-27T08:17:10.197Z,14.50
2019-04-27T08:18:10.158Z,17.70
2019-04-27T08:19:10.149Z,16.60
2019-04-27T08:20:10.138Z,16.30
2019-04-27T08:21:10.128Z,16.60
2019-04-27T08:22:10.118Z,15.20
2019-04-27T08:23:10.106Z,17.70
2019-04-27T08:24:11.213Z,15.00
2019-04-27T08:25:10.085Z,16.90
2019-04-27T08:26:10.074Z,17.20
2019-04-27T08:27:10.065Z,16.50
2019-04-27T08:28:10.450Z,17.80
2019-04-27T08:29:10.043Z,18.40
2019-04-27T08:30:10.034Z,16.70
2019-04-27T08:31:10.021Z,18.80
2019-04-27T08:32:10.013Z,15.80
2019-04-27T08:33:09.997Z,16.20
2019-04-27T08:34:09.991Z,14.50
2019-04-27T08:35:09.978Z,16.50
2019-04-27T08:36:09.967Z,18.30
2019-04-27T08:37:09.954Z,14.70
2019-04-27T08:38:09.949Z,17.10
2019-04-27T08:39:09.932Z,17.00
2019-04-27T08:40:09.924Z,17.30
2019-04-27T08:41:09.913Z,16.20
2019-04-27T08:42:09.901Z,17.40
2019-04-27T08:43:09.891Z,16.30
2019-04-27T08:44:09.880Z,15.80
2019-04-27T08:45:09.871Z,16.90
2019-04-27T08:46:09.859Z,18.80
2019-04-27T08:47:09.848Z,16.10
2019-04-27T08:48:09.837Z,16.30
2019-04-27T08:49:10.229Z,15.60
2019-04-27T08:50:09.816Z,15.80
2019-04-27T08:51:09.808Z,17.30
2019-04-27T08:52:09.793Z,17.00
2019-04-27T08:53:09.981Z,16.50
2019-04-27T08:54:09.772Z,19.50
2019-04-27T08:55:09.762Z,17.70
2019-04-27T08:56:09.758Z,15.40
2019-04-27T08:57:09.872Z,16.80
2019-04-27T08:58:10.207Z,19.30
2019-04-27T08:59:09.723Z,17.40
2019-04-27T09:00:09.712Z,17.00
2019-04-27T09:01:10.419Z,15.90
2019-04-27T09:02:09.726Z,16.60
2019-04-27T09:03:09.726Z,18.70
2019-04-27T09:04:11.316Z,18.70
2019-04-27T09:05:09.753Z,17.70
2019-04-27T09:06:09.651Z,18.30
2019-04-27T09:07:09.683Z,20.20
2019-04-27T09:08:09.622Z,18.40
2019-04-27T09:09:09.623Z,19.60
2019-04-27T09:10:09.603Z,17.90
2019-04-27T09:11:09.589Z,16.20
2019-04-27T09:12:09.598Z,19.50
2019-04-27T09:13:09.571Z,16.00
2019-04-27T09:14:09.557Z,16.80
2019-04-27T09:15:10.007Z,16.30
2019-04-27T09:16:11.100Z,16.10
2019-04-27T09:17:09.718Z,15.50
2019-04-27T09:18:09.516Z,20.40
2019-04-27T09:19:09.504Z,18.00
2019-04-27T09:20:09.608Z,15.30
2019-04-27T09:21:10.586Z,16.60
2019-04-27T09:22:16.003Z,16.00
2019-04-27T09:23:10.460Z,15.60
2019-04-27T09:24:09.512Z,16.20
2019-04-27T09:25:09.487Z,13.80
2019-04-27T09:26:11.114Z,12.90
2019-04-27T09:27:09.719Z,11.60
2019-04-27T09:28:09.409Z,13.20
2019-04-27T09:29:09.396Z,14.30
2019-04-27T09:30:10.324Z,12.40
2019-04-27T09:31:09.377Z,13.70
2019-04-27T09:32:09.366Z,12.40
2019-04-27T09:33:09.354Z,12.70
2019-04-27T09:34:10.541Z,14.10
2019-04-27T09:35:09.333Z,12.70
2019-04-27T09:36:09.323Z,14.30
2019-04-27T09:37:09.317Z,14.60
2019-04-27T09:38:09.301Z,13.00
2019-04-27T09:39:09.291Z,11.00
2019-04-27T09:40:09.280Z,13.30
2019-04-27T09:41:09.270Z,13.50
2019-04-27T09:42:09.277Z,13.60
2019-04-27T09:43:09.255Z,12.80
2019-04-27T09:44:09.257Z,13.20
2019-04-27T09:45:09.227Z,15.10
2019-04-27T09:46:09.217Z,13.50
2019-04-27T09:47:09.207Z,12.40
2019-04-27T09:48:09.197Z,13.60
2019-04-27T09:49:12.013Z,11.50
2019-04-27T09:50:09.172Z,14.30
2019-04-27T09:51:09.162Z,11.90
2019-04-27T09:52:09.152Z,11.50
2019-04-27T09:53:09.144Z,12.20
2019-04-27T09:54:09.131Z,14.90
2019-04-27T09:55:09.121Z,13.00
2019-04-27T09:56:09.113Z,12.10
2019-04-27T09:57:09.099Z,11.40
2019-04-27T09:58:09.087Z,12.10
2019-04-27T09:59:09.077Z,11.90
2019-04-27T10:00:09.069Z,13.10
2019-04-27T10:01:09.055Z,12.40
2019-04-27T10:02:09.046Z,13.20
2019-04-27T10:03:09.034Z,11.20
2019-04-27T10:04:09.023Z,11.20
2019-04-27T10:05:09.014Z,13.20
2019-04-27T10:06:09.002Z,10.60
2019-04-27T10:07:09.010Z,12.10
2019-04-27T10:08:08.982Z,11.30
2019-04-27T10:09:08.969Z,12.00
2019-04-27T10:10:08.962Z,12.70
2019-04-27T10:11:08.951Z,11.40
2019-04-27T10:12:08.937Z,11.80
2019-04-27T10:13:08.934Z,10.30
2019-04-27T10:14:08.924Z,10.10
2019-04-27T10:15:08.906Z,9.60
2019-04-27T10:16:08.897Z,11.10
2019-04-27T10:17:08.888Z,11.50
2019-04-27T10:18:08.888Z,10.20
2019-04-27T10:19:08.864Z,10.90
2019-04-27T10:20:08.854Z,9.70
2019-04-27T10:21:08.842Z,12.10
2019-04-27T10:22:08.881Z,10.40
2019-04-27T10:23:08.822Z,10.80
2019-04-27T10:24:08.810Z,13.50
2019-04-27T10:25:08.810Z,12.10
2019-04-27T10:26:08.790Z,11.60
2019-04-27T10:27:08.786Z,12.60
2019-04-27T10:28:08.770Z,11.40
2019-04-27T10:29:08.758Z,11.40
2019-04-27T10:30:08.747Z,11.60
2019-04-27T10:31:08.737Z,10.50
2019-04-27T10:32:08.729Z,11.10
2019-04-27T10:33:08.718Z,11.80
2019-04-27T10:34:08.706Z,12.80
2019-04-27T10:35:08.697Z,10.70
2019-04-27T10:36:08.682Z,12.90
2019-04-27T10:37:08.674Z,12.90
2019-04-27T10:38:08.661Z,11.60
2019-04-27T10:39:08.652Z,10.80
2019-04-27T10:40:08.640Z,10.70
2019-04-27T10:41:08.631Z,10.20
2019-04-27T10:42:08.623Z,10.40
2019-04-27T10:43:08.619Z,10.10
2019-04-27T10:44:08.600Z,11.20
2019-04-27T10:45:08.588Z,11.70
2019-04-27T10:46:08.577Z,10.80
2019-04-27T10:47:08.568Z,11.80
2019-04-27T10:48:08.558Z,12.00
2019-04-27T10:49:08.547Z,12.30
2019-04-27T10:50:08.536Z,11.80
2019-04-27T10:51:08.527Z,11.70
2019-04-27T10:52:08.514Z,10.80
2019-04-27T10:53:08.507Z,11.40
2019-04-27T10:54:08.491Z,12.10
2019-04-27T10:55:08.480Z,12.00
2019-04-27T10:56:08.475Z,11.40
2019-04-27T10:57:08.461Z,10.00
2019-04-27T10:58:08.451Z,10.80
2019-04-27T10:59:09.750Z,10.40
2019-04-27T11:00:08.430Z,9.90
2019-04-27T11:01:08.418Z,10.30
2019-04-27T11:02:08.409Z,11.20
2019-04-27T11:03:08.397Z,11.60
2019-04-27T11:04:08.387Z,10.00
2019-04-27T11:05:08.379Z,10.60
2019-04-27T11:06:08.421Z,9.40
2019-04-27T11:07:08.370Z,10.10
2019-04-27T11:08:08.346Z,12.30
2019-04-27T11:09:08.335Z,9.10
2019-04-27T11:10:08.325Z,9.80
2019-04-27T11:11:08.314Z,9.50
2019-04-27T11:12:08.304Z,9.40
2019-04-27T11:13:08.294Z,9.00
2019-04-27T11:14:08.295Z,9.90
2019-04-27T11:15:08.271Z,9.00
2019-04-27T11:16:08.268Z,10.70
2019-04-27T11:17:08.249Z,11.30
2019-04-27T11:18:08.330Z,11.50
2019-04-27T11:19:08.231Z,11.20
2019-04-27T11:20:08.227Z,9.10
2019-04-27T11:21:08.213Z,8.90
2019-04-27T11:22:08.219Z,9.80
2019-04-27T11:23:12.122Z,9.70
2019-04-27T11:24:08.184Z,11.00
2019-04-27T11:25:08.169Z,8.70
2019-04-27T11:26:08.161Z,8.40
2019-04-27T11:27:08.145Z,8.70
2019-04-27T11:28:08.135Z,9.30
2019-04-27T11:29:08.123Z,10.50
2019-04-27T11:30:08.112Z,10.00
2019-04-27T11:31:08.103Z,9.40
2019-04-27T11:32:08.093Z,10.90
2019-04-27T11:33:08.082Z,9.20
2019-04-27T11:34:08.071Z,9.50
2019-04-27T11:35:08.063Z,9.90
2019-04-27T11:36:08.052Z,8.70
2019-04-27T11:37:08.039Z,7.50
2019-04-27T11:38:08.029Z,9.10
2019-04-27T11:39:08.020Z,7.20
2019-04-27T11:40:08.008Z,9.00
2019-04-27T11:41:08.001Z,8.20
2019-04-27T11:42:07.985Z,7.70
2019-04-27T11:43:07.977Z,7.40
2019-04-27T11:44:07.965Z,8.00
2019-04-27T11:45:07.954Z,7.10
2019-04-27T11:46:07.947Z,7.60
2019-04-27T11:47:07.972Z,8.20
2019-04-27T11:48:08.773Z,7.50
2019-04-27T11:49:07.913Z,8.70
2019-04-27T11:50:08.319Z,9.50
2019-04-27T11:51:10.903Z,6.90
2019-04-27T11:52:07.913Z,7.10
2019-04-27T11:53:19.763Z,7.30
2019-04-27T11:54:08.903Z,7.40
2019-04-27T11:55:07.859Z,8.10
2019-04-27T11:56:07.890Z,7.90
2019-04-27T11:57:07.861Z,7.60
2019-04-27T11:58:07.863Z,7.20
2019-04-27T11:59:07.871Z,6.90
2019-04-27T12:00:07.836Z,6.70
2019-04-27T12:01:08.518Z,7.10
2019-04-27T12:02:07.815Z,7.40
2019-04-27T12:03:07.818Z,4.90
2019-04-27T12:04:07.805Z,5.50
2019-04-27T12:05:08.050Z,6.40
2019-04-27T12:06:07.754Z,6.50
2019-04-27T12:07:07.776Z,7.10
2019-04-27T12:08:07.756Z,6.10
2019-04-27T12:09:07.724Z,6.60
2019-04-27T12:10:07.760Z,7.00
2019-04-27T12:11:07.737Z,5.70
2019-04-27T12:12:13.509Z,5.10
2019-04-27T12:13:08.715Z,7.00
2019-04-27T12:14:07.707Z,5.30
2019-04-27T12:15:07.648Z,4.90
2019-04-27T12:16:07.697Z,5.50
2019-04-27T12:17:07.628Z,4.80
2019-04-27T12:18:09.086Z,5.40
2019-04-27T12:19:07.638Z,5.20
2019-04-27T12:20:07.655Z,5.90
2019-04-27T12:21:07.619Z,5.80
2019-04-27T12:22:07.633Z,7.10
2019-04-27T12:23:07.605Z,5.00
2019-04-27T12:24:07.601Z,6.00
2019-04-27T12:25:07.560Z,6.30
2019-04-27T12:26:08.294Z,4.60
2019-04-27T12:27:07.562Z,5.10
2019-04-27T12:28:07.538Z,6.20
2019-04-27T12:29:07.515Z,5.30
2019-04-27T12:30:07.498Z,5.80
2019-04-27T12:31:09.109Z,4.70
2019-04-27T12:32:07.518Z,6.00
2019-04-27T12:33:07.468Z,6.00
2019-04-27T12:34:07.468Z,4.80
2019-04-27T12:35:08.282Z,4.20
2019-04-27T12:36:07.486Z,5.50
2019-04-27T12:37:07.480Z,4.50
2019-04-27T12:38:07.447Z,6.20
2019-04-27T12:39:07.463Z,4.80
2019-04-27T12:40:07.395Z,6.80
2019-04-27T12:41:07.383Z,6.90
2019-04-27T12:42:07.373Z,6.70
2019-04-27T12:43:07.362Z,7.70
2019-04-27T12:44:07.353Z,6.10
2019-04-27T12:45:07.345Z,6.40
2019-04-27T12:46:07.331Z,7.50
2019-04-27T12:47:07.319Z,6.00
2019-04-27T12:48:07.310Z,7.60
2019-04-27T12:49:07.300Z,10.10
2019-04-27T12:50:07.288Z,7.10
2019-04-27T12:51:07.278Z,7.50
2019-04-27T12:52:07.265Z,6.30
2019-04-27T12:53:07.256Z,7.40
2019-04-27T12:54:07.245Z,8.30
2019-04-27T12:55:07.237Z,7.10
2019-04-27T12:56:07.224Z,7.30
2019-04-27T12:57:07.215Z,8.00
2019-04-27T12:58:07.203Z,8.40
2019-04-27T12:59:07.193Z,7.40